Bookmark and Share
Track history (hours):
 

Peleus

Last reported at 2014-Apr-25 05:33 UTC. Time now 2014-Apr-25 06:06 UTC.
Position N 53°36' E 005°13'.

Length 88 m; draft 3.5 m.

Type: Cargo ship. MMSI: 305810000.

NotesDate/timePositionNaut miles runAvg speedWind from/ knotsBaromVisibWave heightAir tempDewpointWater temp
2014-Apr-25 05:33N 53°36' E 005°13'9 8.9
2014-Apr-25 04:33N 53°39' E 005°27'9 8.7
2014-Apr-25 03:33N 53°42' E 005°41'9 8.7
2014-Apr-25 02:33N 53°45' E 005°55'9 9.0
2014-Apr-25 01:33N 53°47' E 006°09'3510.5
2014-Apr-24 22:11N 53°56' E 007°07'710.9
2014-Apr-24 21:31N 53°58' E 007°19'1010.5
2014-Apr-24 20:33N 53°59' E 007°36'9 9.2
2014-Apr-24 19:33N 53°53' E 007°48'1010.2
2014-Apr-24 18:33N 53°50' E 008°04'9 8.9
2014-Apr-24 17:34N 53°44' E 008°15'8 7.8
2014-Apr-24 16:33N 53°39' E 008°25'7 7.2
2014-Apr-24 15:33N 53°33' E 008°33'7 7.2
2014-Apr-24 14:33N 53°27' E 008°29'6 6.1
2014-Apr-24 13:32N 53°20' E 008°30'0 0.0
2014-Apr-24 12:32N 53°20' E 008°30'0 0.0
2014-Apr-24 11:32N 53°20' E 008°30'0 0.0
2014-Apr-24 10:32N 53°20' E 008°30'0 0.0
2014-Apr-24 09:23N 53°20' E 008°30'0 0.0
2014-Apr-24 08:32N 53°20' E 008°30'0 0.0
2014-Apr-24 07:32N 53°20' E 008°30'0 0.0
2014-Apr-24 06:32N 53°20' E 008°30'0 0.0
2014-Apr-24 05:32N 53°20' E 008°30'0 0.0
2014-Apr-24 04:32N 53°20' E 008°30'0 0.0
2014-Apr-24 03:26N 53°20' E 008°30'0 0.0
2014-Apr-24 02:32N 53°20' E 008°30'0 0.0
2014-Apr-24 01:32N 53°20' E 008°30'0 0.0
2014-Apr-24 00:32N 53°20' E 008°30'0 0.0
2014-Apr-23 23:26N 53°20' E 008°30'0 0.0
2014-Apr-23 22:32N 53°20' E 008°30'0 0.0
2014-Apr-23 21:26N 53°20' E 008°30'0 0.0
2014-Apr-23 20:29N 53°20' E 008°30'0 0.0
2014-Apr-23 19:17N 53°20' E 008°30'0 0.0
2014-Apr-23 18:29N 53°20' E 008°30'0 0.0
2014-Apr-23 17:29N 53°20' E 008°30'0 0.0
2014-Apr-23 16:32N 53°20' E 008°30'0 0.0
2014-Apr-23 15:26N 53°20' E 008°30'0 0.0
2014-Apr-23 14:29N 53°20' E 008°30'0 0.0
2014-Apr-23 13:26N 53°20' E 008°30'0 0.0
2014-Apr-23 12:32N 53°20' E 008°30'0 0.0
2014-Apr-23 11:32N 53°20' E 008°30'0 0.0
2014-Apr-23 10:26N 53°20' E 008°30'0 0.0
2014-Apr-23 09:23N 53°20' E 008°30'0 0.0
2014-Apr-23 08:32N 53°20' E 008°30'0 0.0
2014-Apr-23 07:29N 53°20' E 008°30'0 0.0
2014-Apr-23 06:29N 53°20' E 008°30'0 0.0
2014-Apr-23 05:23N 53°20' E 008°30'0 0.0
2014-Apr-23 04:26N 53°20' E 008°30'0 0.0
2014-Apr-23 03:32N 53°20' E 008°30'0 0.0
2014-Apr-23 02:28N 53°20' E 008°30'0 0.0
2014-Apr-23 01:25N 53°20' E 008°30'0 0.0
2014-Apr-23 00:22N 53°20' E 008°30'0 0.0
2014-Apr-22 23:31N 53°20' E 008°30'0 0.0
2014-Apr-22 22:31N 53°20' E 008°30'0 0.0
2014-Apr-22 21:31N 53°20' E 008°30'0 0.0
2014-Apr-22 20:31N 53°20' E 008°30'0 0.0
2014-Apr-22 19:31N 53°20' E 008°30'0 0.0
2014-Apr-22 18:31N 53°20' E 008°30'0 0.0
2014-Apr-22 17:31N 53°20' E 008°30'0 0.0
2014-Apr-22 16:28N 53°20' E 008°30'0 0.0
2014-Apr-22 15:28N 53°20' E 008°30'0 0.0
2014-Apr-22 14:04N 53°20' E 008°30'0 0.0
2014-Apr-22 13:16N 53°20' E 008°30'0 0.0
2014-Apr-22 12:28N 53°20' E 008°30'0 0.0
2014-Apr-22 09:04N 53°20' E 008°30'0 0.0
2014-Apr-22 08:22N 53°20' E 008°30'0 0.0
2014-Apr-22 07:31N 53°20' E 008°30'5 5.6
2014-Apr-22 06:33N 53°26' E 008°30'8 8.1
2014-Apr-22 05:33N 53°34' E 008°33'10 9.5
2014-Apr-22 04:33N 53°41' E 008°22'10 9.7
2014-Apr-22 03:33N 53°47' E 008°09'9 9.4
2014-Apr-22 02:33N 53°51' E 007°55'8 8.1
2014-Apr-22 01:33N 53°53' E 007°42'6 6.1
2014-Apr-22 00:33N 53°54' E 007°32'6 6.3
2014-Apr-21 23:33N 53°53' E 007°21'7 6.6
2014-Apr-21 22:33N 53°51' E 007°10'7 6.6
2014-Apr-21 21:32N 53°50' E 006°59'9 6.6
2014-Apr-21 20:06N 53°48' E 006°44'16 5.9
2014-Apr-21 17:28N 53°44' E 006°18'5 5.6
2014-Apr-21 16:33N 53°43' E 006°10'6 5.7
2014-Apr-21 15:33N 53°41' E 006°00'6 6.2
2014-Apr-21 14:33N 53°38' E 005°51'7 6.6
2014-Apr-21 13:32N 53°36' E 005°40'7 7.1
2014-Apr-21 12:33N 53°34' E 005°29'8 7.6
2014-Apr-21 11:33N 53°31' E 005°17'8 7.9
2014-Apr-21 10:33N 53°29' E 005°05'8 8.2
2014-Apr-21 09:33N 53°26' E 004°51'8 8.1
2014-Apr-21 08:33N 53°21' E 004°41'9 8.9
2014-Apr-21 07:33N 53°13' E 004°34'9 8.8
2014-Apr-21 06:33N 53°06' E 004°26'8 8.1
2014-Apr-21 05:33N 52°58' E 004°21'7 7.3
2014-Apr-21 04:33N 52°52' E 004°15'7 6.7
2014-Apr-21 03:33N 52°46' E 004°09'6 6.3
2014-Apr-21 02:33N 52°42' E 004°02'6 6.2
2014-Apr-21 01:33N 52°37' E 003°55'6 6.0
2014-Apr-21 00:33N 52°33' E 003°48'6 5.9
2014-Apr-20 23:33N 52°29' E 003°41'7 6.1
2014-Apr-20 22:26N 52°24' E 003°34'57 8.3
2014-Apr-20 15:33N 51°41' E 002°31'8 8.4
2014-Apr-20 14:33N 51°35' E 002°23'7 7.4
2014-Apr-20 13:33N 51°29' E 002°15'7 6.5
2014-Apr-20 12:33N 51°23' E 002°11'6 5.8
2014-Apr-20 11:33N 51°18' E 002°07'5 5.1
2014-Apr-20 10:31N 51°14' E 002°02'5 5.2
2014-Apr-20 09:32N 51°10' E 001°55'6 5.4
2014-Apr-20 08:29N 51°07' E 001°48'  

Dump ship's entire track history

sailing weather and tide predictions

Peleus — V2FV2 — position and weather